sensor_id;sensor_type;location;lat;lon;timestamp;temperature;humidity
8947;DHT22;4508;48.790;9.028;2022-11-20T00:00:05;4.40;99.90
8947;DHT22;4508;48.790;9.028;2022-11-20T00:02:33;4.40;99.90
8947;DHT22;4508;48.790;9.028;2022-11-20T00:04:59;4.40;99.90
8947;DHT22;4508;48.790;9.028;2022-11-20T00:07:26;4.40;99.90
8947;DHT22;4508;48.790;9.028;2022-11-20T00:09:53;4.40;99.90
8947;DHT22;4508;48.790;9.028;2022-11-20T00:12:19;4.40;99.90
8947;DHT22;4508;48.790;9.028;2022-11-20T00:14:46;4.40;99.90
8947;DHT22;4508;48.790;9.028;2022-11-20T00:17:13;4.40;99.90
8947;DHT22;4508;48.790;9.028;2022-11-20T00:19:41;4.40;99.90
8947;DHT22;4508;48.790;9.028;2022-11-20T00:22:07;4.40;99.90
8947;DHT22;4508;48.790;9.028;2022-11-20T00:24:34;4.50;99.90
8947;DHT22;4508;48.790;9.028;2022-11-20T00:27:01;4.50;99.90
8947;DHT22;4508;48.790;9.028;2022-11-20T00:29:27;4.50;99.90
8947;DHT22;4508;48.790;9.028;2022-11-20T00:31:54;4.50;99.90
8947;DHT22;4508;48.790;9.028;2022-11-20T00:34:21;4.50;99.90
8947;DHT22;4508;48.790;9.028;2022-11-20T00:36:49;4.50;99.90
8947;DHT22;4508;48.790;9.028;2022-11-20T00:39:15;4.50;99.90
8947;DHT22;4508;48.790;9.028;2022-11-20T00:41:42;4.50;99.90
8947;DHT22;4508;48.790;9.028;2022-11-20T00:44:09;4.50;99.90
8947;DHT22;4508;48.790;9.028;2022-11-20T00:46:35;4.50;99.90
8947;DHT22;4508;48.790;9.028;2022-11-20T00:49:02;4.50;99.90
8947;DHT22;4508;48.790;9.028;2022-11-20T00:51:29;4.50;99.90
8947;DHT22;4508;48.790;9.028;2022-11-20T00:53:58;4.50;99.90
8947;DHT22;4508;48.790;9.028;2022-11-20T00:56:27;4.50;99.90
8947;DHT22;4508;48.790;9.028;2022-11-20T00:58:54;4.50;99.90
8947;DHT22;4508;48.790;9.028;2022-11-20T01:01:22;4.50;99.90
8947;DHT22;4508;48.790;9.028;2022-11-20T01:03:51;4.50;99.90
8947;DHT22;4508;48.790;9.028;2022-11-20T01:06:19;4.50;99.90
8947;DHT22;4508;48.790;9.028;2022-11-20T01:08:47;4.50;99.90
8947;DHT22;4508;48.790;9.028;2022-11-20T01:11:17;4.50;99.90
8947;DHT22;4508;48.790;9.028;2022-11-20T01:13:45;4.50;99.90
8947;DHT22;4508;48.790;9.028;2022-11-20T01:16:14;4.50;99.90
8947;DHT22;4508;48.790;9.028;2022-11-20T01:18:42;4.40;99.90
8947;DHT22;4508;48.790;9.028;2022-11-20T01:21:12;4.40;99.90
8947;DHT22;4508;48.790;9.028;2022-11-20T01:23:41;4.40;99.90
8947;DHT22;4508;48.790;9.028;2022-11-20T01:26:10;4.50;99.90
8947;DHT22;4508;48.790;9.028;2022-11-20T01:28:38;4.40;99.90
8947;DHT22;4508;48.790;9.028;2022-11-20T01:31:11;4.50;99.90
8947;DHT22;4508;48.790;9.028;2022-11-20T01:33:39;4.40;99.90
8947;DHT22;4508;48.790;9.028;2022-11-20T01:36:08;4.40;99.90
8947;DHT22;4508;48.790;9.028;2022-11-20T01:38:34;4.30;99.90
8947;DHT22;4508;48.790;9.028;2022-11-20T01:41:01;4.30;99.90
8947;DHT22;4508;48.790;9.028;2022-11-20T01:43:28;4.20;99.90
8947;DHT22;4508;48.790;9.028;2022-11-20T01:46:05;4.20;99.90
8947;DHT22;4508;48.790;9.028;2022-11-20T01:48:36;4.20;99.90
8947;DHT22;4508;48.790;9.028;2022-11-20T01:51:08;4.20;99.90
8947;DHT22;4508;48.790;9.028;2022-11-20T01:53:37;4.20;99.90
8947;DHT22;4508;48.790;9.028;2022-11-20T01:56:06;4.10;99.90
8947;DHT22;4508;48.790;9.028;2022-11-20T01:58:38;4.10;99.90
8947;DHT22;4508;48.790;9.028;2022-11-20T02:01:08;4.10;99.90
8947;DHT22;4508;48.790;9.028;2022-11-20T02:03:35;4.10;99.90
8947;DHT22;4508;48.790;9.028;2022-11-20T02:06:06;4.00;99.90
8947;DHT22;4508;48.790;9.028;2022-11-20T02:08:35;4.00;99.90
8947;DHT22;4508;48.790;9.028;2022-11-20T02:11:02;4.00;99.90
8947;DHT22;4508;48.790;9.028;2022-11-20T02:13:29;4.00;99.90
8947;DHT22;4508;48.790;9.028;2022-11-20T02:16:15;4.00;99.90
8947;DHT22;4508;48.790;9.028;2022-11-20T02:18:43;3.90;99.90
8947;DHT22;4508;48.790;9.028;2022-11-20T02:21:28;3.90;99.90
8947;DHT22;4508;48.790;9.028;2022-11-20T02:24:08;3.90;99.90
8947;DHT22;4508;48.790;9.028;2022-11-20T02:26:42;3.90;99.90
8947;DHT22;4508;48.790;9.028;2022-11-20T02:29:10;3.90;99.90
8947;DHT22;4508;48.790;9.028;2022-11-20T02:31:38;3.90;99.90
8947;DHT22;4508;48.790;9.028;2022-11-20T02:34:06;4.00;99.90
8947;DHT22;4508;48.790;9.028;2022-11-20T02:36:35;4.10;99.90
8947;DHT22;4508;48.790;9.028;2022-11-20T02:39:04;4.10;99.90
8947;DHT22;4508;48.790;9.028;2022-11-20T02:41:33;4.10;99.90
8947;DHT22;4508;48.790;9.028;2022-11-20T02:44:00;4.10;99.90
8947;DHT22;4508;48.790;9.028;2022-11-20T02:46:26;4.10;99.90
8947;DHT22;4508;48.790;9.028;2022-11-20T02:48:53;4.10;99.90
8947;DHT22;4508;48.790;9.028;2022-11-20T02:51:20;4.20;99.90
8947;DHT22;4508;48.790;9.028;2022-11-20T02:53:46;4.20;99.90
8947;DHT22;4508;48.790;9.028;2022-11-20T02:56:15;4.30;99.90
8947;DHT22;4508;48.790;9.028;2022-11-20T02:58:42;4.20;99.90
8947;DHT22;4508;48.790;9.028;2022-11-20T03:01:08;4.20;99.90
8947;DHT22;4508;48.790;9.028;2022-11-20T03:03:35;4.20;99.90
8947;DHT22;4508;48.790;9.028;2022-11-20T03:06:02;4.20;99.90
8947;DHT22;4508;48.790;9.028;2022-11-20T03:08:29;4.30;99.90
8947;DHT22;4508;48.790;9.028;2022-11-20T03:10:55;4.30;99.90
8947;DHT22;4508;48.790;9.028;2022-11-20T03:13:25;4.30;99.90
8947;DHT22;4508;48.790;9.028;2022-11-20T03:15:51;4.30;99.90
8947;DHT22;4508;48.790;9.028;2022-11-20T03:18:18;4.30;99.90
8947;DHT22;4508;48.790;9.028;2022-11-20T03:20:45;4.30;99.90
8947;DHT22;4508;48.790;9.028;2022-11-20T03:23:11;4.20;99.90
8947;DHT22;4508;48.790;9.028;2022-11-20T03:25:38;4.10;99.90
8947;DHT22;4508;48.790;9.028;2022-11-20T03:28:05;4.00;99.90
8947;DHT22;4508;48.790;9.028;2022-11-20T03:30:33;3.90;99.90
8947;DHT22;4508;48.790;9.028;2022-11-20T03:33:01;3.90;99.90
8947;DHT22;4508;48.790;9.028;2022-11-20T03:35:27;3.80;99.90
8947;DHT22;4508;48.790;9.028;2022-11-20T03:37:54;3.80;99.90
8947;DHT22;4508;48.790;9.028;2022-11-20T03:40:21;3.80;99.90
8947;DHT22;4508;48.790;9.028;2022-11-20T03:42:47;3.70;99.90
8947;DHT22;4508;48.790;9.028;2022-11-20T03:45:15;3.70;99.90
8947;DHT22;4508;48.790;9.028;2022-11-20T03:47:44;3.70;99.90
8947;DHT22;4508;48.790;9.028;2022-11-20T03:50:12;3.60;99.90
8947;DHT22;4508;48.790;9.028;2022-11-20T03:52:39;3.50;99.90
8947;DHT22;4508;48.790;9.028;2022-11-20T03:55:06;3.50;99.90
8947;DHT22;4508;48.790;9.028;2022-11-20T03:57:33;3.50;99.90
8947;DHT22;4508;48.790;9.028;2022-11-20T04:00:00;3.50;99.90
8947;DHT22;4508;48.790;9.028;2022-11-20T04:02:26;3.50;99.90
8947;DHT22;4508;48.790;9.028;2022-11-20T04:04:54;3.50;99.90
8947;DHT22;4508;48.790;9.028;2022-11-20T04:07:21;3.60;99.90
8947;DHT22;4508;48.790;9.028;2022-11-20T04:09:48;3.60;99.90
8947;DHT22;4508;48.790;9.028;2022-11-20T04:12:14;3.60;99.90
8947;DHT22;4508;48.790;9.028;2022-11-20T04:14:41;3.50;99.90
8947;DHT22;4508;48.790;9.028;2022-11-20T04:17:08;3.50;99.90
8947;DHT22;4508;48.790;9.028;2022-11-20T04:19:34;3.60;99.90
8947;DHT22;4508;48.790;9.028;2022-11-20T04:22:02;3.60;99.90
8947;DHT22;4508;48.790;9.028;2022-11-20T04:24:29;3.60;99.90
8947;DHT22;4508;48.790;9.028;2022-11-20T04:26:56;3.60;99.90
8947;DHT22;4508;48.790;9.028;2022-11-20T04:29:22;3.80;99.90
8947;DHT22;4508;48.790;9.028;2022-11-20T04:31:49;3.80;99.90
8947;DHT22;4508;48.790;9.028;2022-11-20T04:34:16;3.90;99.90
8947;DHT22;4508;48.790;9.028;2022-11-20T04:36:42;3.90;99.90
8947;DHT22;4508;48.790;9.028;2022-11-20T04:39:13;4.00;99.90
8947;DHT22;4508;48.790;9.028;2022-11-20T04:41:40;4.00;99.90
8947;DHT22;4508;48.790;9.028;2022-11-20T04:44:07;4.00;99.90
8947;DHT22;4508;48.790;9.028;2022-11-20T04:46:36;4.00;99.90
8947;DHT22;4508;48.790;9.028;2022-11-20T04:49:03;4.00;99.90
8947;DHT22;4508;48.790;9.028;2022-11-20T04:51:30;4.00;99.90
8947;DHT22;4508;48.790;9.028;2022-11-20T04:53:57;4.00;99.90
8947;DHT22;4508;48.790;9.028;2022-11-20T04:56:25;4.10;99.90
8947;DHT22;4508;48.790;9.028;2022-11-20T04:58:52;4.10;99.90
8947;DHT22;4508;48.790;9.028;2022-11-20T05:01:20;4.20;99.90
8947;DHT22;4508;48.790;9.028;2022-11-20T05:03:47;4.20;99.90
8947;DHT22;4508;48.790;9.028;2022-11-20T05:06:15;4.20;99.90
8947;DHT22;4508;48.790;9.028;2022-11-20T05:08:42;4.20;99.90
8947;DHT22;4508;48.790;9.028;2022-11-20T05:11:12;4.30;99.90
8947;DHT22;4508;48.790;9.028;2022-11-20T05:13:40;4.30;99.90
8947;DHT22;4508;48.790;9.028;2022-11-20T05:16:08;4.30;99.90
8947;DHT22;4508;48.790;9.028;2022-11-20T05:18:37;4.30;99.90
8947;DHT22;4508;48.790;9.028;2022-11-20T05:21:04;4.30;99.90
8947;DHT22;4508;48.790;9.028;2022-11-20T05:23:31;4.30;99.90
8947;DHT22;4508;48.790;9.028;2022-11-20T05:25:59;4.30;99.90
8947;DHT22;4508;48.790;9.028;2022-11-20T05:28:27;4.30;99.90
8947;DHT22;4508;48.790;9.028;2022-11-20T05:30:55;4.30;99.90
8947;DHT22;4508;48.790;9.028;2022-11-20T05:33:22;4.30;99.90
8947;DHT22;4508;48.790;9.028;2022-11-20T05:35:49;4.30;99.90
8947;DHT22;4508;48.790;9.028;2022-11-20T05:38:15;4.30;99.90
8947;DHT22;4508;48.790;9.028;2022-11-20T05:40:42;4.30;99.90
8947;DHT22;4508;48.790;9.028;2022-11-20T05:43:09;4.30;99.90
8947;DHT22;4508;48.790;9.028;2022-11-20T05:45:35;4.30;99.90
8947;DHT22;4508;48.790;9.028;2022-11-20T05:48:04;4.30;99.90
8947;DHT22;4508;48.790;9.028;2022-11-20T05:50:31;4.20;99.90
8947;DHT22;4508;48.790;9.028;2022-11-20T05:52:58;4.30;99.90
8947;DHT22;4508;48.790;9.028;2022-11-20T05:55:25;4.30;99.90
8947;DHT22;4508;48.790;9.028;2022-11-20T05:57:52;4.30;99.90
8947;DHT22;4508;48.790;9.028;2022-11-20T06:00:20;4.30;99.90
8947;DHT22;4508;48.790;9.028;2022-11-20T06:02:46;4.30;99.90
8947;DHT22;4508;48.790;9.028;2022-11-20T06:05:15;4.30;99.90
8947;DHT22;4508;48.790;9.028;2022-11-20T06:07:41;4.30;99.90
8947;DHT22;4508;48.790;9.028;2022-11-20T06:10:08;4.40;99.90
8947;DHT22;4508;48.790;9.028;2022-11-20T06:12:35;4.40;99.90
8947;DHT22;4508;48.790;9.028;2022-11-20T06:15:02;4.40;99.90
8947;DHT22;4508;48.790;9.028;2022-11-20T06:17:29;4.40;99.90
8947;DHT22;4508;48.790;9.028;2022-11-20T06:19:56;4.50;99.90
8947;DHT22;4508;48.790;9.028;2022-11-20T06:22:24;4.50;99.90
8947;DHT22;4508;48.790;9.028;2022-11-20T06:24:50;4.50;99.90
8947;DHT22;4508;48.790;9.028;2022-11-20T06:27:17;4.50;99.90
8947;DHT22;4508;48.790;9.028;2022-11-20T06:29:44;4.50;99.90
8947;DHT22;4508;48.790;9.028;2022-11-20T06:32:10;4.50;99.90
8947;DHT22;4508;48.790;9.028;2022-11-20T06:34:37;4.50;99.90
8947;DHT22;4508;48.790;9.028;2022-11-20T06:37:04;4.50;99.90
8947;DHT22;4508;48.790;9.028;2022-11-20T06:39:32;4.50;99.90
8947;DHT22;4508;48.790;9.028;2022-11-20T06:41:58;4.50;99.90
8947;DHT22;4508;48.790;9.028;2022-11-20T06:44:27;4.50;99.90
8947;DHT22;4508;48.790;9.028;2022-11-20T06:46:53;4.40;99.90
8947;DHT22;4508;48.790;9.028;2022-11-20T06:49:20;4.50;99.90
8947;DHT22;4508;48.790;9.028;2022-11-20T06:51:47;4.50;99.90
8947;DHT22;4508;48.790;9.028;2022-11-20T06:54:13;4.50;99.90
8947;DHT22;4508;48.790;9.028;2022-11-20T06:56:41;4.50;99.90
8947;DHT22;4508;48.790;9.028;2022-11-20T06:59:08;4.50;99.90
8947;DHT22;4508;48.790;9.028;2022-11-20T07:01:35;4.60;99.90
8947;DHT22;4508;48.790;9.028;2022-11-20T07:04:02;4.60;99.90
8947;DHT22;4508;48.790;9.028;2022-11-20T07:06:29;4.60;99.90
8947;DHT22;4508;48.790;9.028;2022-11-20T07:08:55;4.60;99.90
8947;DHT22;4508;48.790;9.028;2022-11-20T07:11:23;4.60;99.90
8947;DHT22;4508;48.790;9.028;2022-11-20T07:13:51;4.60;99.90
8947;DHT22;4508;48.790;9.028;2022-11-20T07:16:17;4.70;99.90
8947;DHT22;4508;48.790;9.028;2022-11-20T07:18:44;4.70;99.90
8947;DHT22;4508;48.790;9.028;2022-11-20T07:21:11;4.70;99.90
8947;DHT22;4508;48.790;9.028;2022-11-20T07:23:37;4.60;99.90
8947;DHT22;4508;48.790;9.028;2022-11-20T07:26:05;4.60;99.90
8947;DHT22;4508;48.790;9.028;2022-11-20T07:28:33;4.60;99.90
8947;DHT22;4508;48.790;9.028;2022-11-20T07:31:01;4.60;99.90
8947;DHT22;4508;48.790;9.028;2022-11-20T07:33:28;4.70;99.90
8947;DHT22;4508;48.790;9.028;2022-11-20T07:35:55;4.70;99.90
8947;DHT22;4508;48.790;9.028;2022-11-20T07:38:24;4.80;99.90
8947;DHT22;4508;48.790;9.028;2022-11-20T07:40:53;4.80;99.90
8947;DHT22;4508;48.790;9.028;2022-11-20T07:43:20;4.90;99.90
8947;DHT22;4508;48.790;9.028;2022-11-20T07:45:47;5.00;99.90
8947;DHT22;4508;48.790;9.028;2022-11-20T07:48:15;5.10;99.90
8947;DHT22;4508;48.790;9.028;2022-11-20T07:50:42;5.40;99.90
8947;DHT22;4508;48.790;9.028;2022-11-20T07:53:08;5.40;99.90
8947;DHT22;4508;48.790;9.028;2022-11-20T07:55:35;5.50;99.90
8947;DHT22;4508;48.790;9.028;2022-11-20T07:58:02;5.50;99.90
8947;DHT22;4508;48.790;9.028;2022-11-20T08:00:28;5.50;99.90
8947;DHT22;4508;48.790;9.028;2022-11-20T08:02:55;5.50;99.90
8947;DHT22;4508;48.790;9.028;2022-11-20T08:05:23;5.50;99.90
8947;DHT22;4508;48.790;9.028;2022-11-20T08:07:50;5.50;99.90
8947;DHT22;4508;48.790;9.028;2022-11-20T08:10:16;5.50;99.90
8947;DHT22;4508;48.790;9.028;2022-11-20T08:12:44;5.50;99.90
8947;DHT22;4508;48.790;9.028;2022-11-20T08:15:29;5.50;99.90
8947;DHT22;4508;48.790;9.028;2022-11-20T08:18:00;5.40;99.90
8947;DHT22;4508;48.790;9.028;2022-11-20T08:20:28;5.40;99.90
8947;DHT22;4508;48.790;9.028;2022-11-20T08:22:58;5.40;99.90
8947;DHT22;4508;48.790;9.028;2022-11-20T08:25:25;5.50;99.90
8947;DHT22;4508;48.790;9.028;2022-11-20T08:27:52;5.50;99.90
8947;DHT22;4508;48.790;9.028;2022-11-20T08:30:18;5.60;99.90
8947;DHT22;4508;48.790;9.028;2022-11-20T08:32:45;5.70;99.90
8947;DHT22;4508;48.790;9.028;2022-11-20T08:35:12;5.80;99.90
8947;DHT22;4508;48.790;9.028;2022-11-20T08:37:40;5.90;99.90
8947;DHT22;4508;48.790;9.028;2022-11-20T08:40:09;6.10;99.90
8947;DHT22;4508;48.790;9.028;2022-11-20T08:42:36;6.10;99.90
8947;DHT22;4508;48.790;9.028;2022-11-20T08:45:03;6.30;99.90
8947;DHT22;4508;48.790;9.028;2022-11-20T08:47:30;6.60;99.90
8947;DHT22;4508;48.790;9.028;2022-11-20T08:49:56;7.30;99.90
8947;DHT22;4508;48.790;9.028;2022-11-20T08:52:23;6.90;99.90
8947;DHT22;4508;48.790;9.028;2022-11-20T08:54:51;6.60;99.90
8947;DHT22;4508;48.790;9.028;2022-11-20T08:57:18;6.60;99.90
8947;DHT22;4508;48.790;9.028;2022-11-20T08:59:44;6.60;99.90
8947;DHT22;4508;48.790;9.028;2022-11-20T09:02:11;6.50;99.90
8947;DHT22;4508;48.790;9.028;2022-11-20T09:04:38;6.50;99.90
8947;DHT22;4508;48.790;9.028;2022-11-20T09:07:05;6.40;99.90
8947;DHT22;4508;48.790;9.028;2022-11-20T09:09:31;6.40;99.90
8947;DHT22;4508;48.790;9.028;2022-11-20T09:12:00;6.40;99.90
8947;DHT22;4508;48.790;9.028;2022-11-20T09:14:27;6.40;99.90
8947;DHT22;4508;48.790;9.028;2022-11-20T09:16:55;6.40;99.90
8947;DHT22;4508;48.790;9.028;2022-11-20T09:19:23;6.50;99.90
8947;DHT22;4508;48.790;9.028;2022-11-20T09:21:50;6.40;99.90
8947;DHT22;4508;48.790;9.028;2022-11-20T09:24:17;6.50;99.90
8947;DHT22;4508;48.790;9.028;2022-11-20T09:26:44;6.30;99.90
8947;DHT22;4508;48.790;9.028;2022-11-20T09:29:12;6.30;99.90
8947;DHT22;4508;48.790;9.028;2022-11-20T09:31:40;6.20;99.90
8947;DHT22;4508;48.790;9.028;2022-11-20T09:34:06;6.20;99.90
8947;DHT22;4508;48.790;9.028;2022-11-20T09:36:33;6.20;99.90
8947;DHT22;4508;48.790;9.028;2022-11-20T09:39:00;6.20;99.90
8947;DHT22;4508;48.790;9.028;2022-11-20T09:41:42;6.20;99.90
8947;DHT22;4508;48.790;9.028;2022-11-20T09:44:25;6.10;99.90
8947;DHT22;4508;48.790;9.028;2022-11-20T09:47:01;6.10;99.90
8947;DHT22;4508;48.790;9.028;2022-11-20T09:49:38;6.00;99.90
8947;DHT22;4508;48.790;9.028;2022-11-20T09:52:20;6.00;99.90
8947;DHT22;4508;48.790;9.028;2022-11-20T09:54:49;6.00;99.90
8947;DHT22;4508;48.790;9.028;2022-11-20T09:57:19;5.90;99.90
8947;DHT22;4508;48.790;9.028;2022-11-20T09:59:50;5.90;99.90
8947;DHT22;4508;48.790;9.028;2022-11-20T10:02:27;5.90;99.90
8947;DHT22;4508;48.790;9.028;2022-11-20T10:04:59;5.90;99.90
8947;DHT22;4508;48.790;9.028;2022-11-20T10:07:32;5.90;99.90
8947;DHT22;4508;48.790;9.028;2022-11-20T10:10:02;5.80;99.90
8947;DHT22;4508;48.790;9.028;2022-11-20T10:12:47;5.80;99.90
8947;DHT22;4508;48.790;9.028;2022-11-20T10:15:30;5.90;99.90
8947;DHT22;4508;48.790;9.028;2022-11-20T10:18:16;5.90;99.90
8947;DHT22;4508;48.790;9.028;2022-11-20T10:20:52;5.90;99.90
8947;DHT22;4508;48.790;9.028;2022-11-20T10:23:38;5.70;99.90
8947;DHT22;4508;48.790;9.028;2022-11-20T10:26:17;5.70;99.90
8947;DHT22;4508;48.790;9.028;2022-11-20T10:28:56;5.70;99.90
8947;DHT22;4508;48.790;9.028;2022-11-20T10:31:32;5.70;99.90
8947;DHT22;4508;48.790;9.028;2022-11-20T10:34:02;5.60;99.90
8947;DHT22;4508;48.790;9.028;2022-11-20T10:36:36;5.70;99.90
8947;DHT22;4508;48.790;9.028;2022-11-20T10:39:11;5.60;99.90
8947;DHT22;4508;48.790;9.028;2022-11-20T10:41:42;5.60;99.90
8947;DHT22;4508;48.790;9.028;2022-11-20T10:44:12;5.60;99.90
8947;DHT22;4508;48.790;9.028;2022-11-20T10:46:44;5.60;99.90
8947;DHT22;4508;48.790;9.028;2022-11-20T10:49:12;5.60;99.90
8947;DHT22;4508;48.790;9.028;2022-11-20T10:51:50;5.70;99.90
8947;DHT22;4508;48.790;9.028;2022-11-20T10:54:23;5.80;99.90
8947;DHT22;4508;48.790;9.028;2022-11-20T10:56:58;5.80;99.90
8947;DHT22;4508;48.790;9.028;2022-11-20T10:59:38;5.80;99.90
8947;DHT22;4508;48.790;9.028;2022-11-20T11:02:20;5.80;99.90
8947;DHT22;4508;48.790;9.028;2022-11-20T11:04:49;5.70;99.90
8947;DHT22;4508;48.790;9.028;2022-11-20T11:07:19;5.70;99.90
8947;DHT22;4508;48.790;9.028;2022-11-20T11:09:49;5.80;99.90
8947;DHT22;4508;48.790;9.028;2022-11-20T11:12:16;5.80;99.90
8947;DHT22;4508;48.790;9.028;2022-11-20T11:14:45;6.00;99.90
8947;DHT22;4508;48.790;9.028;2022-11-20T11:17:29;6.50;99.90
8947;DHT22;4508;48.790;9.028;2022-11-20T11:20:00;9.40;99.90
8947;DHT22;4508;48.790;9.028;2022-11-20T11:22:29;10.80;99.90
8947;DHT22;4508;48.790;9.028;2022-11-20T11:24:56;11.60;99.90
8947;DHT22;4508;48.790;9.028;2022-11-20T11:27:23;11.80;99.90
8947;DHT22;4508;48.790;9.028;2022-11-20T11:29:50;12.10;99.90
8947;DHT22;4508;48.790;9.028;2022-11-20T11:32:28;11.80;99.90
8947;DHT22;4508;48.790;9.028;2022-11-20T11:35:02;11.80;99.90
8947;DHT22;4508;48.790;9.028;2022-11-20T11:37:33;12.20;99.90
8947;DHT22;4508;48.790;9.028;2022-11-20T11:40:01;12.30;99.90
8947;DHT22;4508;48.790;9.028;2022-11-20T11:42:28;12.60;99.90
8947;DHT22;4508;48.790;9.028;2022-11-20T11:44:57;12.50;99.90
8947;DHT22;4508;48.790;9.028;2022-11-20T11:47:37;10.80;99.90
8947;DHT22;4508;48.790;9.028;2022-11-20T11:50:16;10.60;99.90
8947;DHT22;4508;48.790;9.028;2022-11-20T11:52:46;11.20;99.90
8947;DHT22;4508;48.790;9.028;2022-11-20T11:55:18;12.30;99.90
8947;DHT22;4508;48.790;9.028;2022-11-20T11:57:49;10.80;99.90
8947;DHT22;4508;48.790;9.028;2022-11-20T12:00:20;10.00;99.90
8947;DHT22;4508;48.790;9.028;2022-11-20T12:03:00;10.20;99.90
8947;DHT22;4508;48.790;9.028;2022-11-20T12:05:36;9.50;99.90
8947;DHT22;4508;48.790;9.028;2022-11-20T12:08:09;9.00;99.90
8947;DHT22;4508;48.790;9.028;2022-11-20T12:10:43;9.60;99.90
8947;DHT22;4508;48.790;9.028;2022-11-20T12:13:28;9.50;99.90
8947;DHT22;4508;48.790;9.028;2022-11-20T12:15:58;9.10;99.90
8947;DHT22;4508;48.790;9.028;2022-11-20T12:18:27;9.50;99.90
8947;DHT22;4508;48.790;9.028;2022-11-20T12:21:06;11.90;99.90
8947;DHT22;4508;48.790;9.028;2022-11-20T12:23:44;12.70;99.90
8947;DHT22;4508;48.790;9.028;2022-11-20T12:26:18;12.90;99.90
8947;DHT22;4508;48.790;9.028;2022-11-20T12:28:55;13.30;99.90
8947;DHT22;4508;48.790;9.028;2022-11-20T12:31:47;13.70;99.90
8947;DHT22;4508;48.790;9.028;2022-11-20T12:34:44;13.40;99.90
8947;DHT22;4508;48.790;9.028;2022-11-20T12:37:24;13.00;99.90
8947;DHT22;4508;48.790;9.028;2022-11-20T12:40:00;13.20;99.90
8947;DHT22;4508;48.790;9.028;2022-11-20T12:42:42;13.30;99.90
8947;DHT22;4508;48.790;9.028;2022-11-20T12:48:36;12.60;99.90
8947;DHT22;4508;48.790;9.028;2022-11-20T12:51:23;11.70;99.90
8947;DHT22;4508;48.790;9.028;2022-11-20T12:54:03;11.60;99.90
8947;DHT22;4508;48.790;9.028;2022-11-20T12:56:40;10.70;99.90
8947;DHT22;4508;48.790;9.028;2022-11-20T12:59:21;9.90;99.90
8947;DHT22;4508;48.790;9.028;2022-11-20T13:01:52;9.70;99.90
8947;DHT22;4508;48.790;9.028;2022-11-20T13:04:39;9.50;99.90
8947;DHT22;4508;48.790;9.028;2022-11-20T13:07:11;9.80;99.90
8947;DHT22;4508;48.790;9.028;2022-11-20T13:09:41;9.20;99.90
8947;DHT22;4508;48.790;9.028;2022-11-20T13:12:13;8.90;99.90
8947;DHT22;4508;48.790;9.028;2022-11-20T13:14:44;9.20;99.90
8947;DHT22;4508;48.790;9.028;2022-11-20T13:17:16;9.00;99.90
8947;DHT22;4508;48.790;9.028;2022-11-20T13:19:51;8.70;99.90
8947;DHT22;4508;48.790;9.028;2022-11-20T13:22:25;8.90;99.90
8947;DHT22;4508;48.790;9.028;2022-11-20T13:24:53;8.60;99.90
8947;DHT22;4508;48.790;9.028;2022-11-20T13:27:21;9.30;99.90
8947;DHT22;4508;48.790;9.028;2022-11-20T13:30:00;8.70;99.90
8947;DHT22;4508;48.790;9.028;2022-11-20T13:32:27;8.30;99.90
8947;DHT22;4508;48.790;9.028;2022-11-20T13:34:59;8.10;99.90
8947;DHT22;4508;48.790;9.028;2022-11-20T13:37:30;7.90;99.90
8947;DHT22;4508;48.790;9.028;2022-11-20T13:40:20;7.90;99.90
8947;DHT22;4508;48.790;9.028;2022-11-20T13:42:55;7.80;99.90
8947;DHT22;4508;48.790;9.028;2022-11-20T13:45:24;7.60;99.90
8947;DHT22;4508;48.790;9.028;2022-11-20T13:47:52;7.40;99.90
8947;DHT22;4508;48.790;9.028;2022-11-20T13:50:25;7.30;99.90
8947;DHT22;4508;48.790;9.028;2022-11-20T13:53:04;7.30;99.90
8947;DHT22;4508;48.790;9.028;2022-11-20T13:55:37;7.20;99.90
8947;DHT22;4508;48.790;9.028;2022-11-20T13:58:23;7.00;99.90
8947;DHT22;4508;48.790;9.028;2022-11-20T14:00:58;7.00;99.90
8947;DHT22;4508;48.790;9.028;2022-11-20T14:03:29;7.00;99.90
8947;DHT22;4508;48.790;9.028;2022-11-20T14:05:59;7.00;99.90
8947;DHT22;4508;48.790;9.028;2022-11-20T14:08:35;7.00;99.90
8947;DHT22;4508;48.790;9.028;2022-11-20T14:11:05;6.90;99.90
8947;DHT22;4508;48.790;9.028;2022-11-20T14:13:32;6.80;99.90
8947;DHT22;4508;48.790;9.028;2022-11-20T14:15:59;6.90;99.90
8947;DHT22;4508;48.790;9.028;2022-11-20T14:18:26;6.80;99.90
8947;DHT22;4508;48.790;9.028;2022-11-20T14:20:53;6.80;99.90
8947;DHT22;4508;48.790;9.028;2022-11-20T14:23:26;6.80;99.90
8947;DHT22;4508;48.790;9.028;2022-11-20T14:25:55;6.80;99.90
8947;DHT22;4508;48.790;9.028;2022-11-20T14:28:26;6.80;99.90
8947;DHT22;4508;48.790;9.028;2022-11-20T14:30:53;6.80;99.90
8947;DHT22;4508;48.790;9.028;2022-11-20T14:33:20;6.70;99.90
8947;DHT22;4508;48.790;9.028;2022-11-20T14:35:51;6.70;99.90
8947;DHT22;4508;48.790;9.028;2022-11-20T14:38:22;6.70;99.90
8947;DHT22;4508;48.790;9.028;2022-11-20T14:40:50;6.70;99.90
8947;DHT22;4508;48.790;9.028;2022-11-20T14:43:21;6.70;99.90
8947;DHT22;4508;48.790;9.028;2022-11-20T14:45:54;6.80;99.90
8947;DHT22;4508;48.790;9.028;2022-11-20T14:48:25;6.70;99.90
8947;DHT22;4508;48.790;9.028;2022-11-20T14:50:54;6.90;99.90
8947;DHT22;4508;48.790;9.028;2022-11-20T14:53:22;6.90;99.90
8947;DHT22;4508;48.790;9.028;2022-11-20T14:55:55;7.00;99.90
8947;DHT22;4508;48.790;9.028;2022-11-20T14:58:25;7.00;99.90
8947;DHT22;4508;48.790;9.028;2022-11-20T15:00:57;6.80;99.90
8947;DHT22;4508;48.790;9.028;2022-11-20T15:03:31;6.80;99.90
8947;DHT22;4508;48.790;9.028;2022-11-20T15:05:57;6.60;99.90
8947;DHT22;4508;48.790;9.028;2022-11-20T15:08:24;6.60;99.90
8947;DHT22;4508;48.790;9.028;2022-11-20T15:10:52;6.50;99.90
8947;DHT22;4508;48.790;9.028;2022-11-20T15:13:26;6.50;99.90
8947;DHT22;4508;48.790;9.028;2022-11-20T15:15:54;6.40;99.90
8947;DHT22;4508;48.790;9.028;2022-11-20T15:18:23;6.30;99.90
8947;DHT22;4508;48.790;9.028;2022-11-20T15:20:50;6.20;99.90
8947;DHT22;4508;48.790;9.028;2022-11-20T15:23:18;6.20;99.90
8947;DHT22;4508;48.790;9.028;2022-11-20T15:25:46;6.10;99.90
8947;DHT22;4508;48.790;9.028;2022-11-20T15:28:17;6.00;99.90
8947;DHT22;4508;48.790;9.028;2022-11-20T15:30:46;5.90;99.90
8947;DHT22;4508;48.790;9.028;2022-11-20T15:33:13;5.90;99.90
8947;DHT22;4508;48.790;9.028;2022-11-20T15:35:41;5.80;99.90
8947;DHT22;4508;48.790;9.028;2022-11-20T15:38:07;5.80;99.90
8947;DHT22;4508;48.790;9.028;2022-11-20T15:40:34;5.70;99.90
8947;DHT22;4508;48.790;9.028;2022-11-20T15:43:01;5.70;99.90
8947;DHT22;4508;48.790;9.028;2022-11-20T15:45:34;5.70;99.90
8947;DHT22;4508;48.790;9.028;2022-11-20T15:48:04;5.60;99.90
8947;DHT22;4508;48.790;9.028;2022-11-20T15:50:37;5.60;99.90
8947;DHT22;4508;48.790;9.028;2022-11-20T15:53:04;5.50;99.90
8947;DHT22;4508;48.790;9.028;2022-11-20T15:55:31;5.50;99.90
8947;DHT22;4508;48.790;9.028;2022-11-20T15:57:57;5.50;99.90
8947;DHT22;4508;48.790;9.028;2022-11-20T16:00:24;5.50;99.90
8947;DHT22;4508;48.790;9.028;2022-11-20T16:02:51;5.40;99.90
8947;DHT22;4508;48.790;9.028;2022-11-20T16:05:19;5.40;99.90
8947;DHT22;4508;48.790;9.028;2022-11-20T16:07:48;5.40;99.90
8947;DHT22;4508;48.790;9.028;2022-11-20T16:10:15;5.40;99.90
8947;DHT22;4508;48.790;9.028;2022-11-20T16:12:42;5.40;99.90
8947;DHT22;4508;48.790;9.028;2022-11-20T16:15:26;5.40;99.90
8947;DHT22;4508;48.790;9.028;2022-11-20T16:18:10;5.40;99.90
8947;DHT22;4508;48.790;9.028;2022-11-20T16:20:39;5.40;99.90
8947;DHT22;4508;48.790;9.028;2022-11-20T16:23:06;5.40;99.90
8947;DHT22;4508;48.790;9.028;2022-11-20T16:25:33;5.30;99.90
8947;DHT22;4508;48.790;9.028;2022-11-20T16:27:59;5.30;99.90
8947;DHT22;4508;48.790;9.028;2022-11-20T16:30:26;5.30;99.90
8947;DHT22;4508;48.790;9.028;2022-11-20T16:32:53;5.40;99.90
8947;DHT22;4508;48.790;9.028;2022-11-20T16:35:20;5.30;99.90